Impacts TAF Board INFO
FOR SITUATIONAL AWARENESS. NOT TO BE USED FOR FLIGHT PLANNING PURPOSES.
IDs:

KJFK - New York/Kennedy Int, NY, US

Issued at 0141 UTC 17 Aug 2018
Updated at 0525 UTC 17 Aug 2018
Potential Impact None Slight Moderate High
Time0451Z 17/06Z 17/07Z 17/08Z 17/09Z 17/10Z 17/11Z 17/12Z 17/13Z 17/14Z 17/15Z 17/16Z 17/17Z 17/18Z>>
Type OBS PRVL PRVL PRVL PRVL PRVL PRVL PRVL PRVL PRVL PRVL PRVL PRVL PRVL
VIS 10 >6 >6 >6 >6 >6 >6 >6 >6 >6 >6 >6 >6 >6
CIG -- -- -- -- -- -- -- -- -- -- -- -- -- --
Cover FEW SCT SCT SCT SCT SCT SCT SCT SCT SCT SCT SCT SCT SCT
FltCat VFR VFR VFR VFR VFR VFR VFR VFR VFR VFR VFR VFR VFR VFR
WX -- -- -- -- -- -- -- -- -- -- -- -- -- --
WDir 230 240 240 240 240 240 240 240 200 200 200 180 180 180
WSpd 5 5 5 5 5 5 5 5 8 8 8 10 10 10
WGst -- -- -- -- -- -- -- -- -- -- -- -- -- --

Raw TAF
KJFK 170141Z 1702/1806 21007KT P6SM FEW060
  FM170500 24005KT P6SM FEW050 SCT200
  FM171300 20008KT P6SM FEW050 SCT150
  FM171600 18010KT P6SM FEW050 SCT150 SCT250
  FM172000 18016G23KT P6SM SCT050 SCT150 BKN250
  PROB30 1722/1801 4SM TSRA BKN030CB
  FM180100 20013KT 5SM SHRA BKN050
  PROB30 1801/1803 TSRA BKN035CB
  FM180400 21010KT 5SM -SHRA BKN050


Raw METAR
KJFK 170451Z 23005KT 10SM FEW250 24/23 A3009 RMK AO2 SLP189 T02440233 403170233
KJFK 170351Z 24009KT 10SM FEW250 26/23 A3009 RMK AO2 SLP190 T02610228
KJFK 170251Z 21007KT 10SM FEW250 26/23 A3009 RMK AO2 SLP188 T02610233 51010

METAR Board
Radar Display
Forecast Discussion

FOR SITUATIONAL AWARENESS. NOT TO BE USED FOR FLIGHT PLANNING PURPOSES.